Time;durP1;ratioP1;P1;durP2;ratioP2;P2;SDS_P1;SDS_P2;PMS_P1;PMS_P2;Temp;Humidity;BMP_temperature;BMP_pressure;BME280_temperature;BME280_humidity;BME280_pressure;Samples;Min_cycle;Max_cycle;Signal;HPM_P1;HPM_P2
2022/01/28 00:01:04;;;;;;;8.95;2.90;;;5.60;99.90;;;;;;4975391;28;20164;-81
2022/01/28 00:03:32;;;;;;;10.60;2.70;;;5.60;99.90;;;;;;4975557;28;20169;-81
2022/01/28 00:05:58;;;;;;;10.05;2.65;;;5.70;99.90;;;;;;4974225;28;20185;-80
2022/01/28 00:08:23;;;;;;;9.83;2.73;;;5.60;99.90;;;;;;4974191;28;20189;-81
2022/01/28 00:10:51;;;;;;;5.73;1.90;;;5.60;99.90;;;;;;4975167;28;20529;-81
2022/01/28 00:13:32;;;;;;;11.65;2.80;;;5.60;99.90;;;;;;4975152;28;20227;-80
2022/01/28 00:40:26;;;;;;;9.55;2.58;;;5.10;99.90;;;;;;4974977;28;20165;-82
2022/01/28 00:42:52;;;;;;;8.18;1.92;;;5.10;99.90;;;;;;4979300;28;20195;-81
2022/01/28 00:45:18;;;;;;;6.33;2.10;;;5.10;99.90;;;;;;4974747;28;20641;-81
2022/01/28 00:47:46;;;;;;;11.20;3.05;;;5.10;99.90;;;;;;4974803;28;20227;-81
2022/01/28 00:50:13;;;;;;;11.35;2.75;;;5.00;99.90;;;;;;4974842;28;20177;-82
2022/01/28 00:52:38;;;;;;;11.55;2.67;;;5.00;99.90;;;;;;4974586;28;20569;-81
2022/01/28 00:55:04;;;;;;;12.27;2.13;;;5.10;99.90;;;;;;4975066;28;20181;-82
2022/01/28 00:57:30;;;;;;;13.73;2.73;;;5.00;99.90;;;;;;4974677;28;20638;-81
2022/01/28 00:59:55;;;;;;;10.73;2.30;;;5.00;99.90;;;;;;4974697;28;20185;-81
2022/01/28 01:02:21;;;;;;;13.40;2.70;;;5.00;99.90;;;;;;4974251;28;20279;-81
2022/01/28 01:04:47;;;;;;;7.87;2.60;;;5.00;99.90;;;;;;4974688;28;20187;-82
2022/01/28 01:07:12;;;;;;;9.47;2.93;;;5.00;99.90;;;;;;4974679;28;20184;-82
2022/01/28 01:09:38;;;;;;;9.90;2.30;;;4.90;99.90;;;;;;4974469;28;20189;-81
2022/01/28 01:12:04;;;;;;;5.00;1.80;;;4.90;99.90;;;;;;4972844;28;20632;-81
2022/01/28 01:14:30;;;;;;;12.85;2.83;;;4.90;99.90;;;;;;4974510;28;20218;-81
2022/01/28 01:19:28;;;;;;;11.57;2.55;;;4.70;99.90;;;;;;4974553;28;20416;-81
2022/01/28 01:21:57;;;;;;;9.98;2.10;;;4.70;99.90;;;;;;4974259;28;20204;-82
2022/01/28 01:24:25;;;;;;;10.98;2.88;;;4.60;99.90;;;;;;4974506;28;20268;-81
2022/01/28 01:26:51;;;;;;;8.82;2.28;;;4.70;99.90;;;;;;4974495;28;20184;-82
2022/01/28 01:29:19;;;;;;;15.10;2.73;;;4.60;99.90;;;;;;4974400;28;20564;-81
2022/01/28 01:31:45;;;;;;;13.55;2.88;;;4.60;99.90;;;;;;4974214;28;20287;-81
2022/01/28 01:36:40;;;;;;;9.90;2.72;;;4.50;99.90;;;;;;4978404;28;20178;-81
2022/01/28 01:39:09;;;;;;;20.00;3.23;;;4.50;99.90;;;;;;4978132;28;20617;-81
2022/01/28 01:41:41;;;;;;;6.40;2.22;;;4.40;99.90;;;;;;4976755;28;20200;-81
2022/01/28 01:44:16;;;;;;;9.25;2.55;;;4.40;99.90;;;;;;4978489;28;20181;-81
2022/01/28 01:47:12;;;;;;;12.93;3.00;;;4.40;99.90;;;;;;4978232;28;20170;-81
2022/01/28 01:52:14;;;;;;;11.27;2.45;;;4.30;99.90;;;;;;4978072;28;20247;-82
2022/01/28 01:54:42;;;;;;;10.30;2.43;;;4.30;99.90;;;;;;4978106;28;20594;-82
2022/01/28 01:57:11;;;;;;;20.17;3.17;;;4.30;99.90;;;;;;4977789;28;20257;-81
2022/01/28 01:59:38;;;;;;;10.93;2.78;;;4.30;99.90;;;;;;4977904;28;20689;-82
2022/01/28 02:02:04;;;;;;;16.95;3.33;;;4.20;99.90;;;;;;4977538;28;20212;-82
2022/01/28 02:04:30;;;;;;;15.35;3.63;;;4.10;99.90;;;;;;4976583;28;20607;-82
2022/01/28 02:06:56;;;;;;;15.13;2.37;;;4.10;99.90;;;;;;4976530;28;20212;-82
2022/01/28 02:09:22;;;;;;;8.87;2.60;;;3.90;99.90;;;;;;4977696;28;20263;-82
2022/01/28 02:11:47;;;;;;;12.90;3.13;;;3.90;99.90;;;;;;4977339;28;20432;-82
2022/01/28 02:14:13;;;;;;;10.00;2.50;;;4.00;99.90;;;;;;4977452;28;20184;-81
2022/01/28 02:16:39;;;;;;;10.70;2.63;;;4.00;99.90;;;;;;4977519;28;20203;-82
2022/01/28 02:19:04;;;;;;;11.00;3.03;;;4.00;99.90;;;;;;4977423;28;20547;-81
2022/01/28 02:21:46;;;;;;;10.30;2.67;;;3.90;99.90;;;;;;4977112;28;20197;-81
2022/01/28 02:24:14;;;;;;;16.98;2.75;;;3.90;99.90;;;;;;4977567;28;20163;-81
2022/01/28 02:26:40;;;;;;;9.38;2.30;;;3.90;99.90;;;;;;4977426;28;20264;-81
2022/01/28 02:29:11;;;;;;;8.80;2.73;;;3.70;99.90;;;;;;4975961;28;20356;-82
2022/01/28 02:31:37;;;;;;;13.07;2.85;;;3.70;99.90;;;;;;4976858;28;20287;-81
2022/01/28 02:34:05;;;;;;;17.27;3.17;;;3.70;99.90;;;;;;4977526;28;20172;-82
2022/01/28 02:36:31;;;;;;;13.70;2.83;;;3.80;99.90;;;;;;4976369;28;20179;-81
2022/01/28 02:38:58;;;;;;;10.97;2.70;;;3.70;99.90;;;;;;4977249;28;20698;-81
2022/01/28 02:41:27;;;;;;;10.52;2.90;;;3.70;99.90;;;;;;4976655;28;20291;-83
2022/01/28 02:44:10;;;;;;;11.25;2.25;;;3.70;99.90;;;;;;4976775;28;20545;-81
2022/01/28 02:46:39;;;;;;;9.90;3.20;;;3.70;99.90;;;;;;4977164;28;20544;-82
2022/01/28 02:49:10;;;;;;;10.90;2.13;;;3.80;99.90;;;;;;4977046;28;20250;-81
2022/01/28 02:51:36;;;;;;;14.45;3.28;;;3.80;99.90;;;;;;4976429;28;20291;-81
2022/01/28 02:54:13;;;;;;;16.13;3.23;;;3.80;99.90;;;;;;4975961;28;20304;-81
2022/01/28 02:56:46;;;;;;;11.88;3.20;;;3.80;99.90;;;;;;4976871;28;20488;-81
2022/01/28 02:59:12;;;;;;;4.40;1.73;;;3.80;99.90;;;;;;4976948;28;20251;-81
2022/01/28 03:01:37;;;;;;;16.47;2.60;;;3.60;99.90;;;;;;4976418;28;20291;-82
2022/01/28 03:04:05;;;;;;;8.10;2.53;;;3.70;99.90;;;;;;4976721;28;20217;-81
2022/01/28 03:06:30;;;;;;;9.13;2.50;;;3.60;99.90;;;;;;4976940;28;20180;-82
2022/01/28 03:08:58;;;;;;;11.70;2.33;;;3.60;99.90;;;;;;4976743;28;20180;-81
2022/01/28 03:16:31;;;;;;;12.45;2.17;;;3.50;99.90;;;;;;4976907;28;20249;-81
2022/01/28 03:19:13;;;;;;;9.80;2.55;;;3.50;99.90;;;;;;4976498;28;20264;-81
2022/01/28 03:21:42;;;;;;;7.72;2.28;;;3.60;99.90;;;;;;4976144;28;20200;-82
2022/01/28 03:24:10;;;;;;;7.68;1.88;;;3.50;99.90;;;;;;4976448;28;20607;-82
2022/01/28 03:26:36;;;;;;;10.02;2.00;;;3.60;99.90;;;;;;4975241;28;20177;-81
2022/01/28 03:29:03;;;;;;;9.13;2.40;;;3.60;99.90;;;;;;4976073;28;20597;-81
2022/01/28 03:31:28;;;;;;;15.60;2.42;;;3.70;99.90;;;;;;4975869;28;20207;-81
2022/01/28 03:33:54;;;;;;;10.43;2.07;;;3.60;99.90;;;;;;4976087;28;20578;-81
2022/01/28 03:36:19;;;;;;;9.33;2.00;;;3.50;99.90;;;;;;4974967;28;20173;-82
2022/01/28 03:38:47;;;;;;;13.33;2.60;;;3.50;99.90;;;;;;4976363;28;20646;-81
2022/01/28 03:41:16;;;;;;;7.57;1.92;;;3.50;99.90;;;;;;4975964;28;20184;-81
2022/01/28 03:43:44;;;;;;;19.92;2.55;;;3.40;99.90;;;;;;4976357;28;20200;-83
2022/01/28 03:46:09;;;;;;;8.23;2.50;;;3.40;99.90;;;;;;4975997;28;20191;-81
2022/01/28 03:48:35;;;;;;;11.10;2.40;;;3.40;99.90;;;;;;4976142;28;20184;-82
2022/01/28 03:51:01;;;;;;;8.20;2.10;;;3.50;99.90;;;;;;4976070;28;20560;-82
2022/01/28 03:53:27;;;;;;;11.03;2.93;;;3.50;99.90;;;;;;4975713;28;20543;-81
2022/01/28 03:55:54;;;;;;;10.00;2.57;;;3.50;99.90;;;;;;4974999;28;20415;-81
2022/01/28 03:58:19;;;;;;;8.88;2.40;;;3.50;99.90;;;;;;4975806;28;20180;-81
2022/01/28 04:00:45;;;;;;;8.30;2.83;;;3.50;99.90;;;;;;4975599;28;20181;-81
2022/01/28 04:11:25;;;;;;;8.30;2.00;;;3.40;99.90;;;;;;4975485;28;20553;-82
2022/01/28 04:11:36;;;;;;;19.65;2.72;;;3.50;99.90;;;;;;4974242;28;20680;-81
2022/01/28 04:14:20;;;;;;;18.30;3.20;;;3.40;99.90;;;;;;4975478;28;20189;-83
2022/01/28 04:19:30;;;;;;;10.77;2.58;;;3.20;99.90;;;;;;4975776;28;20220;-81
2022/01/28 04:21:56;;;;;;;8.90;2.40;;;3.20;99.90;;;;;;4975323;28;20209;-82
2022/01/28 04:24:21;;;;;;;8.93;2.53;;;3.30;99.90;;;;;;4975340;28;20217;-81
2022/01/28 04:26:47;;;;;;;6.57;2.23;;;3.20;99.90;;;;;;4975852;28;20260;-81
2022/01/28 04:29:13;;;;;;;7.63;2.23;;;3.30;99.90;;;;;;4974390;28;20215;-82
2022/01/28 04:31:42;;;;;;;12.40;2.78;;;3.30;99.90;;;;;;4975292;28;20256;-81
2022/01/28 04:34:09;;;;;;;12.43;1.90;;;3.30;99.90;;;;;;4975165;28;20222;-81
2022/01/28 04:36:40;;;;;;;9.68;2.92;;;3.30;99.90;;;;;;4975032;28;20268;-81
2022/01/28 04:39:52;;;;;;;16.00;1.98;;;3.20;99.90;;;;;;4973793;28;20535;-81
2022/01/28 04:44:28;;;;;;;11.23;2.03;;;3.20;99.90;;;;;;4975105;28;20267;-81
2022/01/28 04:47:10;;;;;;;15.73;3.25;;;3.10;99.90;;;;;;4974107;28;20180;-81
2022/01/28 05:13:37;;;;;;;7.07;2.08;;;2.20;99.90;;;;;;4974449;28;20297;-81
2022/01/28 05:26:58;;;;;;;10.73;2.92;;;1.90;99.90;;;;;;4974663;28;20221;-81
2022/01/28 05:29:24;;;;;;;13.10;3.65;;;1.80;99.90;;;;;;4974240;28;20198;-81
2022/01/28 05:31:49;;;;;;;6.93;2.80;;;1.80;99.90;;;;;;4972779;28;20285;-81
2022/01/28 05:34:15;;;;;;;17.37;3.80;;;1.80;99.90;;;;;;4974438;28;20225;-81
2022/01/28 05:36:41;;;;;;;14.38;3.70;;;1.70;99.90;;;;;;4974290;28;20208;-81
2022/01/28 05:39:07;;;;;;;7.53;3.30;;;1.70;99.90;;;;;;4974417;28;20263;-81
2022/01/28 05:41:33;;;;;;;9.10;2.77;;;1.80;99.90;;;;;;4974180;28;20594;-81
2022/01/28 05:44:00;;;;;;;14.60;4.17;;;1.70;99.90;;;;;;4973355;28;20186;-81
2022/01/28 05:46:28;;;;;;;9.20;3.33;;;1.80;99.90;;;;;;4974984;28;20189;-80
2022/01/28 05:48:54;;;;;;;10.80;3.92;;;1.90;99.90;;;;;;4974992;28;20649;-81
2022/01/28 05:51:19;;;;;;;18.50;4.30;;;1.90;99.90;;;;;;4974873;28;20203;-81
2022/01/28 05:53:45;;;;;;;13.33;4.20;;;1.80;99.90;;;;;;4976785;28;20673;-81
2022/01/28 05:56:11;;;;;;;19.83;3.97;;;1.80;99.90;;;;;;4975590;28;20183;-81
2022/01/28 05:58:36;;;;;;;13.47;4.70;;;1.80;99.90;;;;;;4976672;28;20268;-81
2022/01/28 06:01:02;;;;;;;18.43;5.40;;;1.80;99.90;;;;;;4973842;28;20665;-81
2022/01/28 06:03:28;;;;;;;12.57;5.60;;;1.80;99.90;;;;;;4973943;28;20202;-81
2022/01/28 06:05:53;;;;;;;13.93;5.30;;;1.70;99.90;;;;;;4974000;28;20183;-81
2022/01/28 06:08:19;;;;;;;18.73;4.50;;;1.70;99.90;;;;;;4974314;28;20423;-81
2022/01/28 06:10:44;;;;;;;11.03;4.37;;;1.70;99.90;;;;;;4974011;28;20722;-81
2022/01/28 06:13:11;;;;;;;8.80;3.90;;;1.70;99.90;;;;;;4973785;28;20235;-81
2022/01/28 06:15:41;;;;;;;14.70;4.93;;;1.80;99.90;;;;;;4972733;28;20258;-81
2022/01/28 06:18:08;;;;;;;17.40;4.95;;;1.90;99.90;;;;;;4974067;28;20171;-81
2022/01/28 06:20:40;;;;;;;10.70;4.75;;;2.10;99.90;;;;;;4977438;28;20554;-82
2022/01/28 06:23:05;;;;;;;19.73;5.13;;;2.10;99.90;;;;;;4975666;28;20351;-81
2022/01/28 06:25:31;;;;;;;11.90;4.03;;;2.00;99.90;;;;;;4976512;28;20287;-81
2022/01/28 06:27:57;;;;;;;15.33;5.50;;;2.00;99.90;;;;;;4977449;28;20195;-81
2022/01/28 06:30:23;;;;;;;11.33;4.90;;;2.00;99.90;;;;;;4977222;28;20942;-81
2022/01/28 06:32:49;;;;;;;11.93;4.80;;;2.00;99.90;;;;;;4975636;28;20657;-81
2022/01/28 06:35:15;;;;;;;18.42;5.55;;;2.10;99.90;;;;;;4977339;28;20195;-81
2022/01/28 06:37:42;;;;;;;16.13;5.50;;;2.10;99.90;;;;;;4977285;28;20177;-81
2022/01/28 06:40:11;;;;;;;16.60;6.55;;;2.30;99.90;;;;;;4977664;28;20662;-81
2022/01/28 06:42:37;;;;;;;9.70;5.18;;;2.20;99.90;;;;;;4976937;28;20338;-80
2022/01/28 06:45:06;;;;;;;9.88;4.65;;;2.20;99.90;;;;;;4977813;28;20204;-81
2022/01/28 06:47:32;;;;;;;22.00;5.15;;;2.10;99.90;;;;;;4976959;28;20182;-81
2022/01/28 06:49:58;;;;;;;21.75;5.15;;;2.00;99.90;;;;;;4976790;28;20262;-81
2022/01/28 06:52:24;;;;;;;13.68;5.32;;;2.00;99.90;;;;;;4976461;28;20295;-81
2022/01/28 06:54:50;;;;;;;17.50;5.97;;;1.90;99.90;;;;;;4976995;28;20190;-81
2022/01/28 06:57:15;;;;;;;11.93;4.67;;;1.90;99.90;;;;;;4976860;28;20177;-81
2022/01/28 06:59:41;;;;;;;10.83;5.33;;;1.80;99.90;;;;;;4959448;28;20177;-81
2022/01/28 07:02:07;;;;;;;13.73;5.47;;;1.90;99.90;;;;;;4976427;28;20204;-81
2022/01/28 07:04:33;;;;;;;17.52;6.03;;;1.90;99.90;;;;;;4976662;28;20191;-81
2022/01/28 07:06:58;;;;;;;15.77;5.53;;;2.00;99.90;;;;;;4976765;28;20578;-81
2022/01/28 07:09:24;;;;;;;13.27;5.40;;;2.00;99.90;;;;;;4976522;28;20217;-81
2022/01/28 07:11:50;;;;;;;13.68;6.38;;;1.80;99.90;;;;;;4976171;28;20206;-81
2022/01/28 07:14:16;;;;;;;17.97;4.63;;;1.70;99.90;;;;;;4976724;28;20522;-81
2022/01/28 07:16:42;;;;;;;18.17;5.90;;;1.80;99.90;;;;;;4976994;28;20173;-81
2022/01/28 07:19:09;;;;;;;16.03;6.17;;;1.80;99.90;;;;;;4977004;28;20422;-81
2022/01/28 07:21:35;;;;;;;15.57;5.70;;;1.90;99.90;;;;;;4975821;28;20204;-81
2022/01/28 07:24:01;;;;;;;11.23;5.75;;;2.10;99.90;;;;;;4975103;28;20728;-81
2022/01/28 07:26:26;;;;;;;16.00;6.37;;;2.20;99.90;;;;;;4976381;28;20224;-81
2022/01/28 07:28:53;;;;;;;19.83;5.73;;;2.20;99.90;;;;;;4976047;28;20260;-81
2022/01/28 07:31:19;;;;;;;10.70;5.95;;;2.20;99.90;;;;;;4941880;28;20186;-81
2022/01/28 07:33:45;;;;;;;12.90;5.35;;;2.20;99.90;;;;;;4976109;28;20203;-81
2022/01/28 07:36:11;;;;;;;15.90;4.90;;;2.30;99.90;;;;;;4974927;28;20182;-81
2022/01/28 07:38:37;;;;;;;18.85;5.90;;;2.20;99.90;;;;;;4976045;28;20184;-80
2022/01/28 07:41:04;;;;;;;18.33;6.10;;;2.20;99.90;;;;;;4974547;28;20646;-81
2022/01/28 07:43:31;;;;;;;13.15;5.80;;;2.20;99.90;;;;;;4975985;28;20180;-81
2022/01/28 07:45:57;;;;;;;20.50;5.95;;;2.30;99.90;;;;;;4974750;28;20214;-81
2022/01/28 07:48:22;;;;;;;19.00;6.50;;;2.40;99.90;;;;;;4974604;28;20540;-81
2022/01/28 07:50:48;;;;;;;9.93;5.20;;;2.30;99.90;;;;;;4975541;28;20186;-81
2022/01/28 07:53:16;;;;;;;29.07;5.67;;;2.30;99.90;;;;;;4975799;28;20268;-81
2022/01/28 07:55:43;;;;;;;13.07;6.10;;;2.40;99.90;;;;;;4975821;28;20175;-81
2022/01/28 07:58:08;;;;;;;16.48;5.20;;;2.30;99.90;;;;;;4976079;28;20553;-81
2022/01/28 08:00:34;;;;;;;17.90;5.90;;;2.30;99.90;;;;;;4975789;28;20185;-78
2022/01/28 08:03:00;;;;;;;22.53;8.40;;;2.30;99.90;;;;;;4975232;28;20652;-79
2022/01/28 08:05:26;;;;;;;16.20;9.20;;;2.30;99.90;;;;;;4975653;28;20184;-79
2022/01/28 08:07:52;;;;;;;20.63;9.47;;;2.30;99.90;;;;;;4975549;28;20513;-79
2022/01/28 08:10:17;;;;;;;17.10;7.82;;;2.30;99.90;;;;;;4964512;28;20927;-80
2022/01/28 08:12:45;;;;;;;12.70;6.83;;;2.30;99.90;;;;;;4955696;28;20217;-79
2022/01/28 08:15:11;;;;;;;15.25;6.13;;;2.30;99.90;;;;;;4956080;28;20452;-79
2022/01/28 08:17:36;;;;;;;19.67;6.90;;;2.40;99.90;;;;;;4955915;29;20638;-80
2022/01/28 08:20:02;;;;;;;17.57;7.10;;;2.50;99.90;;;;;;4955953;29;20184;-80
2022/01/28 08:22:27;;;;;;;13.93;7.80;;;2.40;99.90;;;;;;4955437;29;20211;-80
2022/01/28 08:24:53;;;;;;;11.63;6.33;;;2.40;99.90;;;;;;4955919;29;20211;-80
2022/01/28 08:27:18;;;;;;;13.73;6.57;;;2.50;99.90;;;;;;4958798;28;20195;-79
2022/01/28 08:29:44;;;;;;;13.00;7.00;;;2.50;99.90;;;;;;4974879;28;20200;-79
2022/01/28 08:32:10;;;;;;;18.30;7.00;;;2.60;99.90;;;;;;4973377;28;20632;-79
2022/01/28 08:34:35;;;;;;;16.73;9.37;;;2.60;99.90;;;;;;4975019;28;20181;-80
2022/01/28 08:37:03;;;;;;;18.07;8.03;;;2.70;99.90;;;;;;4975012;28;20274;-80
2022/01/28 08:39:30;;;;;;;17.77;8.57;;;2.80;99.90;;;;;;4973811;28;20172;-80
2022/01/28 08:41:56;;;;;;;23.02;9.98;;;2.80;99.90;;;;;;4974305;28;20530;-79
2022/01/28 08:44:21;;;;;;;20.63;10.00;;;2.90;99.90;;;;;;4974607;28;20184;-79
2022/01/28 08:46:47;;;;;;;22.03;9.83;;;3.00;99.90;;;;;;4974966;28;20506;-80
2022/01/28 08:49:12;;;;;;;17.57;11.37;;;3.10;99.90;;;;;;4974689;28;20191;-79
2022/01/28 08:51:38;;;;;;;15.20;10.30;;;3.30;99.90;;;;;;4973085;28;20295;-80
2022/01/28 08:54:04;;;;;;;24.27;11.23;;;3.40;99.90;;;;;;4974553;28;20213;-80
2022/01/28 08:56:29;;;;;;;17.07;9.53;;;3.40;99.90;;;;;;4974630;28;20414;-80
2022/01/28 08:58:55;;;;;;;22.00;12.00;;;3.50;99.90;;;;;;4974610;28;20197;-79
2022/01/28 09:01:21;;;;;;;24.23;11.03;;;3.50;99.90;;;;;;4973073;28;20183;-80
2022/01/28 09:03:47;;;;;;;20.37;11.20;;;3.50;99.90;;;;;;4974553;28;20173;-81
2022/01/28 09:06:12;;;;;;;23.23;12.75;;;3.60;99.90;;;;;;4973256;28;20177;-81
2022/01/28 09:08:39;;;;;;;28.83;11.50;;;3.60;99.90;;;;;;4974393;28;20652;-80
2022/01/28 09:13:49;;;;;;;26.27;12.48;;;3.80;99.90;;;;;;4974530;28;20581;-80
2022/01/28 09:16:17;;;;;;;22.05;12.43;;;3.90;99.90;;;;;;4974456;28;20179;-80
2022/01/28 09:18:42;;;;;;;19.15;12.18;;;4.00;99.90;;;;;;4974589;28;20185;-80
2022/01/28 09:21:08;;;;;;;24.23;11.87;;;4.00;99.90;;;;;;4972838;28;20544;-81
2022/01/28 09:23:33;;;;;;;28.53;13.07;;;4.00;99.90;;;;;;4974569;28;20180;-80
2022/01/28 09:25:59;;;;;;;23.00;12.50;;;4.00;99.90;;;;;;4974413;28;20177;-80
2022/01/28 09:28:25;;;;;;;19.63;11.17;;;4.20;99.90;;;;;;4973026;28;20180;-80
2022/01/28 09:30:52;;;;;;;18.83;10.97;;;4.30;99.90;;;;;;4972827;28;20189;-80
2022/01/28 09:33:17;;;;;;;25.85;11.27;;;4.50;99.90;;;;;;4974236;28;20723;-82
2022/01/28 09:35:43;;;;;;;17.63;12.00;;;4.60;99.90;;;;;;4974384;28;20185;-80
2022/01/28 09:38:09;;;;;;;29.50;12.17;;;4.80;99.90;;;;;;4974290;28;20212;-80
2022/01/28 09:40:35;;;;;;;27.65;12.73;;;4.80;99.90;;;;;;4974091;28;20509;-81
2022/01/28 09:43:03;;;;;;;20.63;10.53;;;5.00;99.90;;;;;;4973922;28;20209;-80
2022/01/28 09:45:29;;;;;;;19.05;10.95;;;5.00;99.90;;;;;;4974154;28;20425;-80
2022/01/28 09:47:56;;;;;;;23.00;12.03;;;5.20;99.90;;;;;;4974259;28;20235;-79
2022/01/28 09:50:28;;;;;;;21.98;10.18;;;5.20;99.90;;;;;;4974105;28;20203;-80
2022/01/28 09:52:55;;;;;;;27.73;11.32;;;5.20;99.90;;;;;;4973704;28;20215;-80
2022/01/28 09:55:22;;;;;;;23.27;11.20;;;5.30;99.90;;;;;;4976416;28;20185;-80
2022/01/28 09:57:52;;;;;;;24.00;9.82;;;5.20;99.90;;;;;;4976962;28;20204;-80
2022/01/28 10:00:20;;;;;;;20.05;10.93;;;5.40;99.90;;;;;;4977863;28;20175;-81
2022/01/28 10:02:59;;;;;;;15.30;7.78;;;5.50;99.90;;;;;;4977695;28;20651;-80
2022/01/28 10:05:30;;;;;;;19.33;8.00;;;5.40;99.90;;;;;;4977747;28;20161;-80
2022/01/28 10:07:59;;;;;;;14.50;7.97;;;5.50;99.90;;;;;;4976578;28;20188;-80
2022/01/28 10:10:26;;;;;;;12.15;8.45;;;5.50;99.90;;;;;;4976577;28;20645;-80
2022/01/28 10:13:14;;;;;;;11.90;7.72;;;5.60;99.90;;;;;;4977405;28;20207;-80
2022/01/28 10:15:59;;;;;;;13.98;6.57;;;5.70;99.90;;;;;;4977596;28;20248;-80
2022/01/28 10:18:39;;;;;;;17.23;7.10;;;5.70;99.90;;;;;;4977635;28;20251;-81
2022/01/28 10:21:36;;;;;;;20.92;6.80;;;5.80;99.90;;;;;;4976971;28;20196;-80
2022/01/28 10:24:16;;;;;;;9.80;5.45;;;5.80;99.90;;;;;;4968778;28;20501;-81
2022/01/28 10:27:07;;;;;;;12.10;6.03;;;6.00;99.90;;;;;;4977414;28;20173;-80
2022/01/28 10:29:38;;;;;;;20.15;5.78;;;6.20;99.90;;;;;;4977024;28;20661;-80
2022/01/28 10:32:06;;;;;;;12.50;5.68;;;6.20;99.90;;;;;;4976935;28;20212;-80
2022/01/28 10:34:33;;;;;;;13.43;6.72;;;6.60;99.90;;;;;;4977234;28;20180;-80
2022/01/28 10:37:14;;;;;;;12.13;5.30;;;6.60;99.90;;;;;;4977112;28;20180;-80
2022/01/28 10:39:57;;;;;;;9.95;4.47;;;6.50;99.90;;;;;;4977045;28;20173;-80
2022/01/28 10:42:28;;;;;;;13.73;6.60;;;6.60;99.90;;;;;;4976881;28;20238;-80
2022/01/28 10:45:09;;;;;;;14.77;6.00;;;6.80;99.90;;;;;;4977053;28;20237;-80
2022/01/28 10:47:44;;;;;;;18.05;5.78;;;6.90;99.90;;;;;;4976990;28;20169;-80
2022/01/28 10:50:19;;;;;;;17.00;5.00;;;7.10;99.90;;;;;;4976903;28;20263;-81
2022/01/28 10:52:45;;;;;;;12.82;5.95;;;7.10;99.90;;;;;;4976779;28;20203;-81
2022/01/28 10:55:18;;;;;;;9.77;5.25;;;6.90;99.90;;;;;;4976916;28;20171;-81
2022/01/28 10:58:09;;;;;;;13.02;6.25;;;6.80;99.90;;;;;;4975760;28;20188;-81
2022/01/28 11:00:41;;;;;;;17.80;6.75;;;6.60;99.90;;;;;;4975763;28;20177;-80
2022/01/28 11:03:09;;;;;;;16.75;6.53;;;6.50;99.90;;;;;;4976499;28;20552;-81
2022/01/28 11:05:35;;;;;;;12.52;5.40;;;6.60;99.90;;;;;;4976353;28;20180;-80
2022/01/28 11:08:04;;;;;;;11.75;5.97;;;6.70;99.90;;;;;;4976689;28;20196;-81
2022/01/28 11:10:30;;;;;;;11.85;5.28;;;6.90;99.90;;;;;;4976625;28;20184;-81
2022/01/28 11:12:58;;;;;;;13.73;6.40;;;6.90;99.90;;;;;;4976226;28;20211;-80
2022/01/28 11:15:24;;;;;;;7.95;4.45;;;6.90;99.90;;;;;;4976418;28;20184;-81
2022/01/28 11:17:51;;;;;;;13.98;6.10;;;6.80;99.90;;;;;;4975362;28;20175;-80
2022/01/28 11:20:21;;;;;;;14.88;5.35;;;7.20;99.90;;;;;;4976507;28;20533;-80
2022/01/28 11:23:18;;;;;;;9.90;4.22;;;7.30;99.90;;;;;;4976093;28;20193;-80
2022/01/28 11:26:21;;;;;;;9.07;3.55;;;7.60;99.90;;;;;;4976266;28;20184;-80
2022/01/28 11:28:54;;;;;;;10.18;5.35;;;7.70;99.90;;;;;;4953948;28;20228;-80
2022/01/28 11:31:40;;;;;;;11.82;5.50;;;7.70;99.90;;;;;;4974535;28;20181;-81
2022/01/28 11:34:18;;;;;;;16.33;5.22;;;7.80;99.90;;;;;;4974901;28;20216;-80
2022/01/28 11:36:43;;;;;;;12.30;4.57;;;7.90;99.90;;;;;;4976161;28;20243;-80
2022/01/28 11:39:33;;;;;;;15.87;4.10;;;8.00;99.90;;;;;;4974871;28;20173;-80
2022/01/28 11:42:14;;;;;;;9.93;3.75;;;7.90;99.90;;;;;;4975580;28;20811;-80
2022/01/28 11:44:44;;;;;;;14.20;4.65;;;8.20;99.90;;;;;;4975997;28;20540;-80
2022/01/28 11:47:19;;;;;;;8.73;3.53;;;8.30;99.90;;;;;;4975943;28;20608;-80
2022/01/28 11:49:54;;;;;;;7.43;3.58;;;8.50;99.90;;;;;;4975794;28;20545;-80
2022/01/28 11:52:22;;;;;;;9.10;4.28;;;8.40;99.90;;;;;;4975321;28;20204;-80
2022/01/28 11:54:47;;;;;;;13.98;4.82;;;8.60;99.90;;;;;;4975649;28;20622;-80
2022/01/28 11:57:16;;;;;;;18.03;5.27;;;8.90;99.90;;;;;;4974620;28;20316;-79
2022/01/28 11:59:42;;;;;;;14.32;5.63;;;8.90;99.90;;;;;;4975627;28;20264;-78
2022/01/28 12:02:10;;;;;;;12.33;3.43;;;9.10;99.90;;;;;;4975336;28;20275;-79
2022/01/28 12:04:36;;;;;;;12.27;3.55;;;9.20;99.90;;;;;;4975527;28;20585;-79
2022/01/28 12:07:04;;;;;;;16.08;4.45;;;9.00;99.90;;;;;;4975700;28;20172;-79
2022/01/28 12:09:31;;;;;;;8.18;3.55;;;9.10;99.90;;;;;;4975594;28;20165;-80
2022/01/28 12:12:00;;;;;;;8.48;3.60;;;8.90;99.90;;;;;;4964741;28;20209;-80
2022/01/28 12:14:56;;;;;;;13.52;3.10;;;8.60;99.90;;;;;;4956317;28;20653;-79
2022/01/28 12:17:31;;;;;;;15.80;4.40;;;8.60;99.90;;;;;;4955684;28;20257;-80
2022/01/28 12:20:15;;;;;;;10.98;3.85;;;8.30;99.90;;;;;;4956107;28;20200;-80
2022/01/28 12:22:59;;;;;;;9.77;4.70;;;8.10;99.90;;;;;;4954430;29;20197;-80
2022/01/28 12:25:37;;;;;;;11.95;3.95;;;7.90;99.90;;;;;;4955948;29;20206;-79
2022/01/28 12:28:22;;;;;;;8.93;4.03;;;7.70;99.90;;;;;;4955888;29;20246;-80
2022/01/28 12:30:59;;;;;;;10.27;4.00;;;7.80;99.90;;;;;;4954220;29;20317;-80
2022/01/28 12:33:30;;;;;;;12.25;4.88;;;8.10;99.90;;;;;;4955832;28;20216;-79
2022/01/28 12:35:59;;;;;;;11.15;3.75;;;8.40;99.90;;;;;;4955747;28;20177;-80
2022/01/28 12:38:31;;;;;;;13.30;3.50;;;8.70;99.90;;;;;;4954394;29;21088;-80
2022/01/28 12:41:06;;;;;;;11.85;3.67;;;8.90;99.90;;;;;;4955448;28;20173;-80
2022/01/28 12:43:32;;;;;;;14.60;4.38;;;9.10;99.90;;;;;;4955727;28;20180;-80
2022/01/28 12:46:05;;;;;;;7.68;3.10;;;9.00;99.90;;;;;;4955601;28;20178;-80
2022/01/28 12:48:32;;;;;;;11.82;3.05;;;9.00;99.90;;;;;;4955619;28;20185;-80
2022/01/28 12:50:58;;;;;;;12.73;2.72;;;9.40;99.90;;;;;;4955481;28;20188;-80
2022/01/28 12:53:39;;;;;;;5.25;2.35;;;9.30;99.90;;;;;;4955358;28;20217;-81
2022/01/28 12:56:05;;;;;;;16.02;3.10;;;9.30;99.90;;;;;;4955386;28;20246;-80
2022/01/28 12:58:35;;;;;;;12.63;3.50;;;9.10;99.90;;;;;;4954103;29;20272;-80
2022/01/28 13:01:12;;;;;;;9.25;2.53;;;9.10;99.90;;;;;;4955164;28;20177;-80
2022/01/28 13:06:39;;;;;;;12.07;3.65;;;9.10;99.90;;;;;;4955691;28;20212;-81
2022/01/28 13:09:20;;;;;;;7.03;3.10;;;9.10;99.90;;;;;;4955443;28;20164;-79
2022/01/28 13:11:54;;;;;;;9.40;3.67;;;9.10;99.90;;;;;;4955167;28;20270;-80
2022/01/28 13:14:32;;;;;;;10.05;3.22;;;9.10;99.90;;;;;;4955315;28;20228;-80
2022/01/28 13:16:59;;;;;;;10.48;3.88;;;9.10;99.90;;;;;;4955251;28;20178;-80
2022/01/28 13:19:27;;;;;;;10.82;3.60;;;8.90;99.90;;;;;;4955056;28;20197;-80
2022/01/28 13:21:54;;;;;;;7.95;3.97;;;8.90;99.90;;;;;;4955014;28;20194;-80
2022/01/28 13:24:22;;;;;;;11.30;4.10;;;8.90;99.90;;;;;;4955140;28;20181;-81
2022/01/28 13:27:07;;;;;;;6.95;3.60;;;8.60;99.90;;;;;;4955407;28;20188;-80
2022/01/28 13:29:43;;;;;;;10.88;3.80;;;8.50;99.90;;;;;;4957256;28;20634;-80
2022/01/28 13:32:10;;;;;;;8.30;4.07;;;8.50;99.90;;;;;;4958768;28;20203;-81
2022/01/28 13:34:48;;;;;;;10.02;4.18;;;8.40;99.90;;;;;;4959006;28;20184;-81
2022/01/28 13:37:49;;;;;;;8.45;4.80;;;8.40;99.90;;;;;;4957959;29;20184;-80
2022/01/28 13:40:29;;;;;;;8.52;3.38;;;8.80;99.90;;;;;;4958928;28;20595;-78
2022/01/28 13:43:08;;;;;;;13.40;3.72;;;9.50;99.90;;;;;;4958643;28;20211;-78
2022/01/28 13:45:42;;;;;;;12.68;2.95;;;10.10;99.90;;;;;;4958893;28;20177;-78
2022/01/28 13:48:13;;;;;;;9.73;3.90;;;10.20;99.90;;;;;;4958859;28;20177;-77
2022/01/28 13:50:42;;;;;;;11.55;3.72;;;10.10;99.90;;;;;;4958575;28;20176;-80
2022/01/28 13:55:53;;;;;;;7.75;3.92;;;9.30;99.90;;;;;;4959227;28;20166;-80
2022/01/28 13:58:19;;;;;;;14.18;4.20;;;9.00;99.90;;;;;;4958682;28;20185;-80
2022/01/28 14:00:48;;;;;;;13.45;4.63;;;8.80;99.90;;;;;;4957062;29;20181;-81
2022/01/28 14:03:18;;;;;;;8.88;4.63;;;8.50;99.90;;;;;;4958485;28;20205;-81
2022/01/28 14:05:57;;;;;;;7.07;4.03;;;8.40;99.90;;;;;;4958772;28;20166;-80
2022/01/28 14:08:48;;;;;;;9.43;4.75;;;8.50;99.90;;;;;;4957240;29;20189;-80
2022/01/28 14:11:26;;;;;;;15.40;5.00;;;8.30;99.90;;;;;;4958010;28;20527;-81
2022/01/28 14:14:15;;;;;;;9.18;5.90;;;8.30;99.90;;;;;;4958431;28;20287;-81
2022/01/28 14:16:47;;;;;;;10.38;5.28;;;8.30;99.90;;;;;;4968311;28;20173;-79
2022/01/28 14:19:13;;;;;;;18.20;5.30;;;8.50;99.90;;;;;;4977899;28;20224;-80
2022/01/28 14:21:41;;;;;;;18.85;5.63;;;8.80;99.90;;;;;;4977201;28;20315;-79
2022/01/28 14:24:07;;;;;;;13.80;4.65;;;9.00;99.90;;;;;;4977590;28;20176;-79
2022/01/28 14:26:43;;;;;;;12.15;3.88;;;8.90;99.90;;;;;;4977315;28;20199;-80
2022/01/28 14:29:22;;;;;;;9.57;5.07;;;9.10;99.90;;;;;;4976252;28;20247;-78
2022/01/28 14:31:50;;;;;;;13.02;4.38;;;9.10;99.90;;;;;;4976220;28;20270;-79